Time;durP1;ratioP1;P1;durP2;ratioP2;P2;SDS_P1;SDS_P2;PMS_P1;PMS_P2;Temp;Humidity;BMP_temperature;BMP_pressure;BME280_temperature;BME280_humidity;BME280_pressure;Samples;Min_cycle;Max_cycle;Signal;HPM_P1;HPM_P2
2024/01/07 00:02:20;;;;;;;29.35;12.18;;;;;;;;;;6279122;22;20224;-47
2024/01/07 00:04:48;;;;;;;33.42;12.50;;;;;;;;;;6254522;22;20450;-46
2024/01/07 00:07:16;;;;;;;34.65;12.40;;;;;;;;;;6281947;22;20025;-49
2024/01/07 00:09:43;;;;;;;29.07;11.90;;;;;;;;;;6284037;22;20019;-48
2024/01/07 00:12:11;;;;;;;31.05;11.65;;;;;;;;;;6274889;22;20023;-50
2024/01/07 00:14:39;;;;;;;30.50;13.13;;;;;;;;;;6258146;22;20022;-47
2024/01/07 00:17:08;;;;;;;29.77;12.57;;;;;;;;;;6282207;22;20039;-47
2024/01/07 00:19:37;;;;;;;30.55;11.20;;;;;;;;;;6287427;22;20014;-50
2024/01/07 00:22:05;;;;;;;33.97;13.17;;;;;;;;;;6270672;22;20011;-48
2024/01/07 00:24:33;;;;;;;28.67;11.77;;;;;;;;;;6252336;22;20454;-48
2024/01/07 00:27:00;;;;;;;31.98;12.70;;;;;;;;;;6273411;22;20042;-45
2024/01/07 00:29:28;;;;;;;31.40;12.57;;;;;;;;;;6280550;22;20023;-48
2024/01/07 00:31:56;;;;;;;30.10;12.55;;;;;;;;;;6272202;22;20549;-47
2024/01/07 00:34:25;;;;;;;28.67;11.67;;;;;;;;;;6220125;22;20080;-46
2024/01/07 00:36:53;;;;;;;32.38;12.98;;;;;;;;;;6272144;22;20924;-46
2024/01/07 00:39:21;;;;;;;31.85;12.45;;;;;;;;;;6283429;22;20082;-46
2024/01/07 00:41:49;;;;;;;31.95;12.85;;;;;;;;;;6279034;22;20015;-47
2024/01/07 00:44:17;;;;;;;30.65;13.30;;;;;;;;;;6288617;22;20018;-49
2024/01/07 00:46:45;;;;;;;26.53;11.40;;;;;;;;;;6279261;22;20019;-46
2024/01/07 00:49:15;;;;;;;27.92;11.80;;;;;;;;;;6283836;22;20025;-49
2024/01/07 00:51:45;;;;;;;31.58;12.68;;;;;;;;;;6284461;22;20106;-48
2024/01/07 00:54:12;;;;;;;31.08;12.55;;;;;;;;;;6276274;22;20191;-49
2024/01/07 00:56:40;;;;;;;32.85;12.80;;;;;;;;;;6281282;22;20022;-48
2024/01/07 00:59:08;;;;;;;36.70;13.10;;;;;;;;;;6279995;22;20015;-46
2024/01/07 01:01:35;;;;;;;27.88;12.85;;;;;;;;;;6280879;22;20019;-48
2024/01/07 01:04:03;;;;;;;31.20;13.40;;;;;;;;;;6274826;22;20019;-48
2024/01/07 01:06:31;;;;;;;32.15;13.25;;;;;;;;;;6275576;22;20072;-47
2024/01/07 01:09:01;;;;;;;33.15;14.55;;;;;;;;;;6283894;22;20053;-49
2024/01/07 01:11:29;;;;;;;28.80;13.37;;;;;;;;;;6286725;22;20023;-50
2024/01/07 01:13:57;;;;;;;32.83;13.52;;;;;;;;;;6282363;22;20022;-49
2024/01/07 01:16:25;;;;;;;32.10;14.35;;;;;;;;;;6289581;22;20016;-52
2024/01/07 01:18:52;;;;;;;34.83;15.10;;;;;;;;;;6252694;22;20050;-51
2024/01/07 01:21:20;;;;;;;35.45;14.93;;;;;;;;;;6286229;22;20007;-51
2024/01/07 01:23:48;;;;;;;32.80;15.20;;;;;;;;;;6276474;22;20011;-51
2024/01/07 01:26:17;;;;;;;32.15;15.20;;;;;;;;;;6286836;22;20357;-48
2024/01/07 01:28:45;;;;;;;33.33;14.43;;;;;;;;;;6281042;22;20018;-50
2024/01/07 01:31:13;;;;;;;37.65;14.90;;;;;;;;;;6287489;22;20011;-49
2024/01/07 01:33:48;;;;;;;35.28;14.77;;;;;;;;;;6222416;22;20029;-47
2024/01/07 01:36:17;;;;;;;34.40;13.87;;;;;;;;;;6278559;22;20022;-49
2024/01/07 01:38:45;;;;;;;34.40;13.90;;;;;;;;;;6282659;22;20463;-49
2024/01/07 01:41:13;;;;;;;36.92;15.10;;;;;;;;;;6279016;22;20015;-49
2024/01/07 01:43:42;;;;;;;38.97;15.85;;;;;;;;;;6258028;22;20015;-48
2024/01/07 01:46:10;;;;;;;46.35;16.88;;;;;;;;;;6280148;22;20034;-48
2024/01/07 01:48:37;;;;;;;39.70;14.93;;;;;;;;;;6284431;22;20098;-50
2024/01/07 01:51:06;;;;;;;39.97;16.58;;;;;;;;;;6278869;22;20323;-49
2024/01/07 01:53:34;;;;;;;40.33;16.65;;;;;;;;;;6283764;22;20030;-49
2024/01/07 01:56:03;;;;;;;37.70;14.95;;;;;;;;;;6278876;22;20535;-46
2024/01/07 01:58:30;;;;;;;40.72;17.85;;;;;;;;;;6283291;22;20019;-50
2024/01/07 02:00:59;;;;;;;44.00;16.03;;;;;;;;;;6279503;22;20027;-51
2024/01/07 02:03:27;;;;;;;36.88;15.90;;;;;;;;;;6286107;22;20504;-47
2024/01/07 02:05:56;;;;;;;37.17;15.52;;;;;;;;;;6247729;22;20534;-47
2024/01/07 02:08:24;;;;;;;37.95;15.43;;;;;;;;;;6286130;22;20015;-48
2024/01/07 02:10:51;;;;;;;37.50;16.30;;;;;;;;;;6261200;22;20023;-46
2024/01/07 02:13:19;;;;;;;37.63;16.00;;;;;;;;;;6273199;22;20064;-46
2024/01/07 02:15:47;;;;;;;38.95;16.40;;;;;;;;;;6253414;22;20355;-49
2024/01/07 02:18:16;;;;;;;36.80;15.52;;;;;;;;;;6281708;22;20651;-51
2024/01/07 02:20:44;;;;;;;37.50;15.80;;;;;;;;;;6282784;22;20019;-47
2024/01/07 02:23:12;;;;;;;40.17;16.35;;;;;;;;;;6282912;22;20106;-46
2024/01/07 02:25:41;;;;;;;38.30;16.23;;;;;;;;;;6261719;22;20034;-48
2024/01/07 02:28:09;;;;;;;40.95;16.05;;;;;;;;;;6281182;22;20012;-48
2024/01/07 02:30:37;;;;;;;44.67;17.02;;;;;;;;;;6282660;22;20450;-46
2024/01/07 02:33:05;;;;;;;40.85;16.60;;;;;;;;;;6255310;22;20019;-46
2024/01/07 02:35:33;;;;;;;43.97;17.35;;;;;;;;;;6246767;22;20019;-49
2024/01/07 02:38:01;;;;;;;41.17;15.87;;;;;;;;;;6273529;22;20023;-50
2024/01/07 02:40:29;;;;;;;42.17;16.10;;;;;;;;;;6287102;22;20019;-46
2024/01/07 02:42:58;;;;;;;42.60;17.98;;;;;;;;;;6282586;22;20022;-46
2024/01/07 02:45:26;;;;;;;43.47;16.73;;;;;;;;;;6273396;22;20019;-45
2024/01/07 02:47:54;;;;;;;37.67;15.93;;;;;;;;;;6260800;22;20078;-46
2024/01/07 02:50:21;;;;;;;38.93;17.37;;;;;;;;;;6262054;22;20026;-46
2024/01/07 02:52:49;;;;;;;38.22;17.27;;;;;;;;;;6293615;22;20019;-46
2024/01/07 02:55:18;;;;;;;44.17;16.88;;;;;;;;;;6278499;22;20068;-50
2024/01/07 02:57:48;;;;;;;41.72;17.13;;;;;;;;;;6253405;22;20015;-51
2024/01/07 03:00:18;;;;;;;47.47;17.83;;;;;;;;;;6290453;22;20047;-46
2024/01/07 03:02:46;;;;;;;43.57;16.67;;;;;;;;;;6278595;22;20030;-46
2024/01/07 03:05:15;;;;;;;41.88;16.40;;;;;;;;;;6291448;22;20015;-49
2024/01/07 03:07:43;;;;;;;42.30;17.17;;;;;;;;;;6292374;22;20446;-49
2024/01/07 03:10:11;;;;;;;44.95;17.67;;;;;;;;;;6283110;22;20022;-47
2024/01/07 03:12:38;;;;;;;43.35;17.65;;;;;;;;;;6287651;22;20050;-46
2024/01/07 03:15:08;;;;;;;39.53;17.60;;;;;;;;;;6258951;22;20037;-48
2024/01/07 03:17:38;;;;;;;42.80;17.15;;;;;;;;;;6255094;22;20453;-46
2024/01/07 03:20:06;;;;;;;41.13;16.75;;;;;;;;;;6290270;22;20094;-47
2024/01/07 03:22:34;;;;;;;37.63;16.92;;;;;;;;;;6282040;22;20015;-46
2024/01/07 03:25:05;;;;;;;40.30;17.75;;;;;;;;;;6284666;22;20344;-49
2024/01/07 03:27:33;;;;;;;41.60;16.67;;;;;;;;;;6285624;22;20011;-46
2024/01/07 03:30:01;;;;;;;43.00;17.30;;;;;;;;;;6286848;22;20534;-48
2024/01/07 03:32:29;;;;;;;44.88;17.98;;;;;;;;;;6252980;22;20015;-49
2024/01/07 03:34:59;;;;;;;40.15;17.08;;;;;;;;;;6250684;22;20023;-46
2024/01/07 03:37:27;;;;;;;46.97;16.88;;;;;;;;;;6256101;22;20022;-46
2024/01/07 03:39:55;;;;;;;38.80;16.07;;;;;;;;;;6269734;22;20502;-44
2024/01/07 03:42:23;;;;;;;37.88;17.80;;;;;;;;;;6284592;22;20735;-46
2024/01/07 03:44:51;;;;;;;44.78;17.67;;;;;;;;;;6286263;22;20345;-46
2024/01/07 03:47:18;;;;;;;43.40;19.15;;;;;;;;;;6277277;22;20680;-46
2024/01/07 03:49:47;;;;;;;42.15;16.67;;;;;;;;;;6283106;22;20069;-48
2024/01/07 03:52:16;;;;;;;37.07;16.47;;;;;;;;;;6289750;22;20430;-48
2024/01/07 03:54:44;;;;;;;42.78;17.73;;;;;;;;;;6279891;22;20023;-46
2024/01/07 03:57:11;;;;;;;40.33;17.17;;;;;;;;;;6289303;22;20015;-47
2024/01/07 03:59:39;;;;;;;43.50;17.52;;;;;;;;;;6287209;22;20012;-46
2024/01/07 04:02:07;;;;;;;38.33;16.88;;;;;;;;;;6286140;22;20018;-46
2024/01/07 04:04:35;;;;;;;36.63;16.80;;;;;;;;;;6285301;22;20402;-45
2024/01/07 04:07:03;;;;;;;39.20;16.77;;;;;;;;;;6287590;22;20019;-47
2024/01/07 04:09:32;;;;;;;41.22;15.32;;;;;;;;;;6255125;22;20015;-46
2024/01/07 04:12:00;;;;;;;36.67;15.10;;;;;;;;;;6286555;22;20015;-46
2024/01/07 04:14:29;;;;;;;36.58;16.55;;;;;;;;;;6284750;22;20755;-48
2024/01/07 04:16:57;;;;;;;34.17;15.20;;;;;;;;;;6271035;22;20636;-49
2024/01/07 04:19:24;;;;;;;34.67;14.55;;;;;;;;;;6278573;22;20015;-46
2024/01/07 04:21:52;;;;;;;34.47;14.68;;;;;;;;;;6286950;22;20019;-45
2024/01/07 04:24:20;;;;;;;30.05;13.25;;;;;;;;;;6280406;22;20280;-46
2024/01/07 04:26:49;;;;;;;35.45;13.80;;;;;;;;;;6288990;22;20019;-46
2024/01/07 04:29:17;;;;;;;35.27;12.87;;;;;;;;;;6285190;22;20011;-48
2024/01/07 04:31:44;;;;;;;31.00;14.05;;;;;;;;;;6290283;22;20015;-45
2024/01/07 04:34:12;;;;;;;29.08;13.48;;;;;;;;;;6219540;22;20046;-48
2024/01/07 04:36:40;;;;;;;31.25;13.13;;;;;;;;;;6281512;22;20077;-46
2024/01/07 04:39:25;;;;;;;30.75;12.70;;;;;;;;;;6280930;22;20812;-45
2024/01/07 04:41:55;;;;;;;28.93;12.13;;;;;;;;;;6286201;22;20023;-45
2024/01/07 04:44:22;;;;;;;32.20;12.73;;;;;;;;;;6285868;22;20012;-45
2024/01/07 04:46:50;;;;;;;29.60;12.27;;;;;;;;;;6283727;22;20042;-46
2024/01/07 04:49:18;;;;;;;30.30;12.27;;;;;;;;;;6283985;22;20022;-46
2024/01/07 04:51:46;;;;;;;27.13;11.45;;;;;;;;;;6283139;22;20472;-47
2024/01/07 04:54:13;;;;;;;31.90;11.87;;;;;;;;;;6255731;22;20081;-46
2024/01/07 04:56:41;;;;;;;24.20;10.43;;;;;;;;;;6286855;22;20020;-46
2024/01/07 04:59:11;;;;;;;23.92;10.10;;;;;;;;;;6284830;22;20099;-47
2024/01/07 05:01:39;;;;;;;23.17;10.77;;;;;;;;;;6289467;22;20015;-46
2024/01/07 05:04:07;;;;;;;25.00;10.88;;;;;;;;;;6279980;22;20379;-45
2024/01/07 05:06:35;;;;;;;20.17;9.00;;;;;;;;;;6290253;22;20038;-46
2024/01/07 05:09:03;;;;;;;25.83;9.40;;;;;;;;;;6282136;22;20584;-46
2024/01/07 05:11:31;;;;;;;20.15;8.75;;;;;;;;;;6287624;22;20015;-47
2024/01/07 05:13:58;;;;;;;21.58;8.80;;;;;;;;;;6283579;22;20394;-48
2024/01/07 05:16:27;;;;;;;23.02;8.55;;;;;;;;;;6288610;22;20019;-45
2024/01/07 05:18:55;;;;;;;20.23;7.87;;;;;;;;;;6283400;22;20030;-47
2024/01/07 05:21:23;;;;;;;16.63;7.30;;;;;;;;;;6282435;22;20015;-47
2024/01/07 05:23:51;;;;;;;18.77;6.82;;;;;;;;;;6285621;22;20019;-46
2024/01/07 05:26:19;;;;;;;25.23;8.63;;;;;;;;;;6279169;22;20019;-47
2024/01/07 05:28:48;;;;;;;17.08;6.72;;;;;;;;;;6291512;22;20016;-47
2024/01/07 05:31:17;;;;;;;15.93;6.13;;;;;;;;;;6284869;22;20607;-46
2024/01/07 05:33:47;;;;;;;14.77;5.70;;;;;;;;;;6223673;22;20023;-49
2024/01/07 05:36:15;;;;;;;12.65;5.15;;;;;;;;;;6278269;22;20110;-48
2024/01/07 05:38:43;;;;;;;13.82;5.70;;;;;;;;;;6282922;22;20504;-46
2024/01/07 05:41:11;;;;;;;15.38;5.40;;;;;;;;;;6285725;22;20080;-47
2024/01/07 05:43:38;;;;;;;11.93;4.87;;;;;;;;;;6287998;22;20038;-51
2024/01/07 05:46:06;;;;;;;15.70;4.95;;;;;;;;;;6285477;22;20030;-51
2024/01/07 05:48:41;;;;;;;14.30;5.18;;;;;;;;;;6277952;22;20019;-50
2024/01/07 05:51:11;;;;;;;14.57;5.35;;;;;;;;;;6273742;22;20015;-51
2024/01/07 05:53:39;;;;;;;19.73;5.20;;;;;;;;;;6278207;22;20019;-50
2024/01/07 05:56:06;;;;;;;13.60;4.97;;;;;;;;;;6274018;22;20019;-51
2024/01/07 05:58:34;;;;;;;12.38;4.75;;;;;;;;;;6276951;22;20022;-49
2024/01/07 06:01:02;;;;;;;13.05;4.55;;;;;;;;;;6269585;22;20565;-47
2024/01/07 06:03:30;;;;;;;11.18;4.70;;;;;;;;;;6279020;22;20017;-47
2024/01/07 06:05:58;;;;;;;13.73;4.78;;;;;;;;;;6268177;22;20015;-49
2024/01/07 06:08:27;;;;;;;13.17;4.93;;;;;;;;;;6277402;22;20020;-49
2024/01/07 06:10:55;;;;;;;11.20;4.18;;;;;;;;;;6272934;22;20031;-47
2024/01/07 06:13:22;;;;;;;11.48;4.05;;;;;;;;;;6286035;22;20015;-47
2024/01/07 06:15:50;;;;;;;12.70;4.38;;;;;;;;;;6273403;22;20217;-46
2024/01/07 06:18:18;;;;;;;11.15;3.95;;;;;;;;;;6279922;22;20015;-46
2024/01/07 06:20:47;;;;;;;9.63;3.23;;;;;;;;;;6274719;22;20019;-47
2024/01/07 06:23:16;;;;;;;11.32;3.30;;;;;;;;;;6247688;22;20841;-47
2024/01/07 06:25:45;;;;;;;10.73;3.35;;;;;;;;;;6244236;22;20011;-47
2024/01/07 06:28:12;;;;;;;13.60;3.15;;;;;;;;;;6277499;22;20015;-47
2024/01/07 06:30:40;;;;;;;12.85;2.90;;;;;;;;;;6245935;22;20016;-49
2024/01/07 06:33:08;;;;;;;10.07;3.30;;;;;;;;;;6238896;22;20021;-48
2024/01/07 06:35:36;;;;;;;10.35;3.20;;;;;;;;;;6233676;22;20424;-49
2024/01/07 06:38:04;;;;;;;13.02;3.45;;;;;;;;;;6273419;22;20030;-47
2024/01/07 06:40:32;;;;;;;10.05;3.03;;;;;;;;;;6271483;22;20019;-47
2024/01/07 06:43:01;;;;;;;13.32;3.70;;;;;;;;;;6284053;22;20049;-46
2024/01/07 06:45:29;;;;;;;12.77;3.33;;;;;;;;;;6282802;22;20056;-47
2024/01/07 06:47:57;;;;;;;12.40;3.50;;;;;;;;;;6279494;22;20011;-50
2024/01/07 06:50:25;;;;;;;9.45;3.30;;;;;;;;;;6281809;22;20023;-49
2024/01/07 06:52:53;;;;;;;12.18;3.30;;;;;;;;;;6255461;22;20015;-49
2024/01/07 06:55:21;;;;;;;14.38;3.08;;;;;;;;;;6278450;22;20046;-48
2024/01/07 06:57:48;;;;;;;12.13;3.30;;;;;;;;;;6274337;22;20019;-49
2024/01/07 07:00:18;;;;;;;13.85;3.25;;;;;;;;;;6277532;22;20022;-45
2024/01/07 07:02:46;;;;;;;10.35;3.45;;;;;;;;;;6270327;22;20065;-46
2024/01/07 07:05:13;;;;;;;9.00;2.83;;;;;;;;;;6276948;22;20019;-49
2024/01/07 07:07:41;;;;;;;17.25;3.78;;;;;;;;;;6278279;22;20015;-46
2024/01/07 07:10:09;;;;;;;12.80;4.10;;;;;;;;;;6284379;22;20015;-46
2024/01/07 07:12:37;;;;;;;10.18;3.22;;;;;;;;;;6279536;22;20022;-46
2024/01/07 07:15:05;;;;;;;12.27;2.83;;;;;;;;;;6286792;22;20025;-47
2024/01/07 07:17:34;;;;;;;10.95;4.00;;;;;;;;;;6270717;22;20012;-50
2024/01/07 07:20:02;;;;;;;13.57;3.80;;;;;;;;;;6274867;22;20513;-47
2024/01/07 07:22:30;;;;;;;11.60;3.60;;;;;;;;;;6278781;22;20453;-46
2024/01/07 07:24:58;;;;;;;10.63;3.10;;;;;;;;;;6285313;22;20019;-47
2024/01/07 07:27:29;;;;;;;13.48;3.85;;;;;;;;;;6280890;22;20011;-47
2024/01/07 07:29:56;;;;;;;10.23;4.05;;;;;;;;;;6279248;22;20026;-45
2024/01/07 07:32:24;;;;;;;9.02;4.03;;;;;;;;;;6249334;22;20381;-46
2024/01/07 07:34:54;;;;;;;12.87;3.73;;;;;;;;;;6218678;22;20454;-46
2024/01/07 07:37:21;;;;;;;12.15;4.32;;;;;;;;;;6272410;22;20046;-47
2024/01/07 07:39:49;;;;;;;15.15;4.15;;;;;;;;;;6281293;22;20450;-46
2024/01/07 07:42:17;;;;;;;14.18;3.63;;;;;;;;;;6279436;22;20019;-47
2024/01/07 07:44:45;;;;;;;11.68;3.95;;;;;;;;;;6281676;22;20358;-46
2024/01/07 07:47:12;;;;;;;9.27;3.97;;;;;;;;;;6276468;22;20019;-46
2024/01/07 07:49:40;;;;;;;8.55;3.33;;;;;;;;;;6274333;22;20015;-46
2024/01/07 07:52:10;;;;;;;13.25;3.78;;;;;;;;;;6281200;22;20015;-49
2024/01/07 07:54:38;;;;;;;12.55;4.00;;;;;;;;;;6273936;22;20485;-48
2024/01/07 07:57:06;;;;;;;9.90;3.17;;;;;;;;;;6280789;22;20034;-47
2024/01/07 07:59:33;;;;;;;12.73;3.80;;;;;;;;;;6274751;22;20011;-45
2024/01/07 08:02:01;;;;;;;12.63;3.70;;;;;;;;;;6278138;22;20385;-48
2024/01/07 08:04:29;;;;;;;10.93;3.20;;;;;;;;;;6269385;22;20072;-48
2024/01/07 08:06:57;;;;;;;9.73;3.05;;;;;;;;;;6275693;22;20131;-47
2024/01/07 08:09:26;;;;;;;9.85;3.22;;;;;;;;;;6278870;22;20019;-47
2024/01/07 08:11:54;;;;;;;9.47;3.10;;;;;;;;;;6283809;22;20021;-49
2024/01/07 08:14:24;;;;;;;11.32;3.55;;;;;;;;;;6284785;22;20019;-46
2024/01/07 08:16:52;;;;;;;10.27;3.15;;;;;;;;;;6275634;22;20019;-47
2024/01/07 08:19:20;;;;;;;10.75;3.15;;;;;;;;;;6254011;22;20054;-46
2024/01/07 08:21:48;;;;;;;12.25;3.47;;;;;;;;;;6283674;22;20450;-47
2024/01/07 08:24:15;;;;;;;11.93;3.40;;;;;;;;;;6249677;22;20114;-45
2024/01/07 08:26:45;;;;;;;11.95;3.03;;;;;;;;;;6285367;22;20022;-46
2024/01/07 08:29:12;;;;;;;12.82;2.70;;;;;;;;;;6278429;22;20015;-46
2024/01/07 08:31:42;;;;;;;11.27;3.05;;;;;;;;;;6284007;22;20045;-47
2024/01/07 08:34:09;;;;;;;10.50;2.67;;;;;;;;;;6210086;22;20468;-46
2024/01/07 08:36:38;;;;;;;8.83;2.63;;;;;;;;;;6279942;22;20048;-46
2024/01/07 08:39:06;;;;;;;8.05;2.28;;;;;;;;;;6278389;22;20054;-47
2024/01/07 08:41:34;;;;;;;9.50;2.50;;;;;;;;;;6287541;22;20214;-48
2024/01/07 08:44:03;;;;;;;12.32;2.20;;;;;;;;;;6278864;22;20015;-46
2024/01/07 08:46:31;;;;;;;9.30;2.28;;;;;;;;;;6284960;22;20042;-45
2024/01/07 08:48:59;;;;;;;7.37;1.73;;;;;;;;;;6256248;22;20111;-48
2024/01/07 08:51:29;;;;;;;10.45;2.03;;;;;;;;;;6279163;22;20125;-47
2024/01/07 08:53:58;;;;;;;6.25;1.58;;;;;;;;;;6282321;22;20664;-47
2024/01/07 08:56:26;;;;;;;6.75;1.50;;;;;;;;;;6281640;22;20019;-46
2024/01/07 08:58:54;;;;;;;8.65;1.50;;;;;;;;;;6284430;22;20019;-45
2024/01/07 09:01:24;;;;;;;6.07;1.90;;;;;;;;;;6277859;22;20015;-45
2024/01/07 09:03:52;;;;;;;7.32;2.13;;;;;;;;;;6256643;22;20015;-46
2024/01/07 09:06:21;;;;;;;9.15;1.92;;;;;;;;;;6286380;22;20227;-46
2024/01/07 09:08:49;;;;;;;5.32;1.45;;;;;;;;;;6278402;22;20015;-45
2024/01/07 09:11:19;;;;;;;7.78;1.38;;;;;;;;;;6285327;22;20388;-46
2024/01/07 09:13:48;;;;;;;8.53;1.83;;;;;;;;;;6280331;22;20023;-47
2024/01/07 09:16:16;;;;;;;6.22;1.48;;;;;;;;;;6283915;22;20050;-45
2024/01/07 09:18:46;;;;;;;6.68;1.30;;;;;;;;;;6279965;22;20098;-46
2024/01/07 09:21:15;;;;;;;7.10;1.52;;;;;;;;;;6283368;22;20035;-47
2024/01/07 09:23:44;;;;;;;6.25;1.20;;;;;;;;;;6281264;22;20022;-46
2024/01/07 09:26:12;;;;;;;10.70;1.40;;;;;;;;;;6258661;22;20023;-45
2024/01/07 09:28:40;;;;;;;8.43;1.50;;;;;;;;;;6279156;22;20015;-46
2024/01/07 09:31:07;;;;;;;7.07;1.17;;;;;;;;;;6284609;22;20019;-48
2024/01/07 09:33:35;;;;;;;9.45;1.10;;;;;;;;;;6264130;22;20477;-49
2024/01/07 09:36:05;;;;;;;7.90;1.40;;;;;;;;;;6217434;22;20019;-48
2024/01/07 09:38:53;;;;;;;5.13;0.83;;;;;;;;;;6278193;22;20089;-46
2024/01/07 09:41:21;;;;;;;5.97;1.40;;;;;;;;;;6283916;22;20019;-45
2024/01/07 09:43:49;;;;;;;7.40;0.90;;;;;;;;;;6283474;22;20015;-46
2024/01/07 09:46:17;;;;;;;10.60;1.20;;;;;;;;;;6280573;22;20750;-45
2024/01/07 09:48:45;;;;;;;7.25;1.08;;;;;;;;;;6282281;22;20075;-46
2024/01/07 09:51:14;;;;;;;6.30;1.13;;;;;;;;;;6277914;22;20097;-45
2024/01/07 09:53:41;;;;;;;6.32;1.63;;;;;;;;;;6284636;22;20015;-47
2024/01/07 09:56:13;;;;;;;7.57;1.02;;;;;;;;;;6278310;22;20064;-45
2024/01/07 09:58:42;;;;;;;6.68;0.90;;;;;;;;;;6284499;22;20020;-48
2024/01/07 10:01:10;;;;;;;7.25;1.23;;;;;;;;;;6278196;22;20022;-47
2024/01/07 10:03:38;;;;;;;5.63;1.00;;;;;;;;;;6283494;22;20050;-47
2024/01/07 10:06:06;;;;;;;11.15;1.30;;;;;;;;;;6278796;22;20025;-47
2024/01/07 10:08:35;;;;;;;8.20;1.02;;;;;;;;;;6285531;22;20012;-46
2024/01/07 10:11:04;;;;;;;9.38;1.33;;;;;;;;;;6283010;22;20328;-48
2024/01/07 10:13:34;;;;;;;5.68;0.98;;;;;;;;;;6283788;22;20022;-48
2024/01/07 10:16:01;;;;;;;5.67;1.20;;;;;;;;;;6287003;22;20022;-50
2024/01/07 10:18:34;;;;;;;10.65;1.60;;;;;;;;;;6279880;22;20029;-48
2024/01/07 10:21:03;;;;;;;5.75;1.20;;;;;;;;;;6284449;22;20019;-49
2024/01/07 10:23:31;;;;;;;4.93;0.95;;;;;;;;;;6251325;22;20015;-51
2024/01/07 10:26:02;;;;;;;7.72;1.48;;;;;;;;;;6286040;22;20069;-49
2024/01/07 10:28:40;;;;;;;6.97;0.87;;;;;;;;;;6280743;22;20019;-48
2024/01/07 10:31:07;;;;;;;6.90;1.23;;;;;;;;;;6285836;22;20026;-51
2024/01/07 10:33:35;;;;;;;8.63;1.52;;;;;;;;;;6242136;22;20576;-49
2024/01/07 10:36:06;;;;;;;7.68;1.27;;;;;;;;;;6236644;22;20030;-48
2024/01/07 10:38:34;;;;;;;9.63;1.00;;;;;;;;;;6282836;22;20019;-50
2024/01/07 10:41:03;;;;;;;7.80;1.53;;;;;;;;;;6273942;22;20352;-48
2024/01/07 10:43:31;;;;;;;6.03;1.08;;;;;;;;;;6287869;22;20068;-51
2024/01/07 10:46:01;;;;;;;6.85;0.90;;;;;;;;;;6278276;22;20023;-50
2024/01/07 10:48:32;;;;;;;8.75;1.30;;;;;;;;;;6285182;22;20015;-48
2024/01/07 10:51:00;;;;;;;5.00;1.10;;;;;;;;;;6278389;22;20025;-49
2024/01/07 10:53:35;;;;;;;5.50;1.30;;;;;;;;;;6283969;22;20030;-49
2024/01/07 10:56:23;;;;;;;7.32;1.00;;;;;;;;;;6276692;22;20015;-48
2024/01/07 10:58:52;;;;;;;5.30;1.00;;;;;;;;;;6282239;22;20019;-49
2024/01/07 11:01:20;;;;;;;6.13;1.30;;;;;;;;;;6279426;22;20019;-48
2024/01/07 11:04:02;;;;;;;5.72;0.90;;;;;;;;;;6281104;22;20019;-49
2024/01/07 11:06:34;;;;;;;8.77;1.00;;;;;;;;;;6286729;22;20022;-49
2024/01/07 11:09:04;;;;;;;6.18;1.10;;;;;;;;;;6279621;22;20011;-52
2024/01/07 11:11:37;;;;;;;7.80;0.90;;;;;;;;;;6255109;22;20469;-47
2024/01/07 11:14:04;;;;;;;7.80;1.15;;;;;;;;;;6280575;22;20056;-48
2024/01/07 11:16:50;;;;;;;8.52;1.33;;;;;;;;;;6256963;22;20021;-48
2024/01/07 11:19:20;;;;;;;7.87;1.20;;;;;;;;;;6280967;22;20019;-47
2024/01/07 11:21:48;;;;;;;8.35;1.17;;;;;;;;;;6283615;22;20045;-49
2024/01/07 11:24:31;;;;;;;6.47;0.70;;;;;;;;;;6279077;22;20022;-45
2024/01/07 11:27:03;;;;;;;8.30;1.00;;;;;;;;;;6283330;22;20553;-47
2024/01/07 11:29:32;;;;;;;8.88;1.10;;;;;;;;;;6279714;22;20016;-45
2024/01/07 11:32:02;;;;;;;7.60;1.10;;;;;;;;;;6282356;22;20020;-48
2024/01/07 11:34:39;;;;;;;6.45;0.80;;;;;;;;;;6223955;22;20034;-52
2024/01/07 11:37:10;;;;;;;6.65;1.00;;;;;;;;;;6272823;22;20019;-49
2024/01/07 11:39:38;;;;;;;5.10;0.90;;;;;;;;;;6285614;22;20045;-46
2024/01/07 11:42:07;;;;;;;6.22;1.00;;;;;;;;;;6250761;22;20019;-46
2024/01/07 11:44:36;;;;;;;8.03;1.20;;;;;;;;;;6280962;22;21069;-48
2024/01/07 11:47:04;;;;;;;5.75;0.85;;;;;;;;;;6277722;22;20026;-48
2024/01/07 11:49:33;;;;;;;13.40;1.10;;;;;;;;;;6277905;22;20045;-49
2024/01/07 11:52:02;;;;;;;6.25;0.80;;;;;;;;;;6283091;22;20019;-47
2024/01/07 11:54:30;;;;;;;4.57;0.60;;;;;;;;;;6279730;22;20042;-47
2024/01/07 11:56:58;;;;;;;6.73;1.07;;;;;;;;;;6281676;22;20020;-49
2024/01/07 11:59:27;;;;;;;4.85;0.90;;;;;;;;;;6274062;22;20104;-47
2024/01/07 12:01:55;;;;;;;3.97;0.60;;;;;;;;;;6277852;22;20081;-49
2024/01/07 12:04:23;;;;;;;3.28;0.50;;;;;;;;;;6281633;22;20019;-47
2024/01/07 12:06:51;;;;;;;4.80;1.00;;;;;;;;;;6281230;22;20019;-48
2024/01/07 12:09:19;;;;;;;6.10;0.80;;;;;;;;;;6267866;22;20015;-46
2024/01/07 12:11:47;;;;;;;4.25;0.90;;;;;;;;;;6282695;22;20832;-48
2024/01/07 12:14:15;;;;;;;6.97;0.98;;;;;;;;;;6279337;22;20350;-48
2024/01/07 12:16:44;;;;;;;5.53;0.60;;;;;;;;;;6254325;22;20022;-47
2024/01/07 12:19:13;;;;;;;7.07;0.82;;;;;;;;;;6281530;22;20450;-47
2024/01/07 12:21:42;;;;;;;6.10;0.80;;;;;;;;;;6287125;22;20045;-46
2024/01/07 12:24:10;;;;;;;5.75;1.10;;;;;;;;;;6274496;22;20038;-47
2024/01/07 12:26:37;;;;;;;7.07;0.60;;;;;;;;;;6281739;22;20169;-46
2024/01/07 12:29:22;;;;;;;4.05;0.50;;;;;;;;;;6281600;22;20456;-47
2024/01/07 12:31:52;;;;;;;5.25;0.80;;;;;;;;;;6250557;22;20019;-45
2024/01/07 12:34:22;;;;;;;8.57;1.13;;;;;;;;;;6229479;22;20015;-48
2024/01/07 12:36:51;;;;;;;7.40;0.77;;;;;;;;;;6281473;22;20454;-46
2024/01/07 12:39:21;;;;;;;5.25;0.80;;;;;;;;;;6283466;22;20191;-48
2024/01/07 12:41:53;;;;;;;4.57;0.73;;;;;;;;;;6284514;22;20433;-46
2024/01/07 12:44:21;;;;;;;7.22;1.08;;;;;;;;;;6282220;22;20043;-46
2024/01/07 12:46:51;;;;;;;8.73;0.80;;;;;;;;;;6281940;22;20035;-48
2024/01/07 12:49:22;;;;;;;4.43;0.80;;;;;;;;;;6287549;22;20074;-48
2024/01/07 12:52:07;;;;;;;3.90;0.70;;;;;;;;;;6288952;22;20746;-47
2024/01/07 12:54:35;;;;;;;8.20;1.77;;;;;;;;;;6279764;22;20031;-48
2024/01/07 12:57:03;;;;;;;7.25;1.52;;;;;;;;;;6286500;22;20086;-47
2024/01/07 12:59:31;;;;;;;6.33;1.03;;;;;;;;;;6275516;22;20567;-47
2024/01/07 13:01:58;;;;;;;9.80;1.00;;;;;;;;;;6284055;22;20062;-46
2024/01/07 13:04:28;;;;;;;6.30;1.00;;;;;;;;;;6251825;22;20019;-46
2024/01/07 13:06:56;;;;;;;9.07;1.30;;;;;;;;;;6287961;22;20045;-46
2024/01/07 13:09:24;;;;;;;6.28;1.05;;;;;;;;;;6279926;22;20015;-46
2024/01/07 13:11:52;;;;;;;10.17;1.20;;;;;;;;;;6285262;22;20560;-46
2024/01/07 13:14:19;;;;;;;8.52;1.10;;;;;;;;;;6279682;22;20016;-47
2024/01/07 13:16:48;;;;;;;5.28;0.95;;;;;;;;;;6282871;22;20015;-46
2024/01/07 13:19:16;;;;;;;6.25;1.10;;;;;;;;;;6284133;22;20023;-46
2024/01/07 13:21:46;;;;;;;8.23;0.82;;;;;;;;;;6284603;22;20019;-46
2024/01/07 13:24:13;;;;;;;5.80;0.93;;;;;;;;;;6281841;22;20090;-46
2024/01/07 13:26:42;;;;;;;6.78;1.40;;;;;;;;;;6284368;22;20019;-46
2024/01/07 13:29:09;;;;;;;6.50;0.73;;;;;;;;;;6281587;22;20346;-47
2024/01/07 13:31:37;;;;;;;6.93;0.93;;;;;;;;;;6284853;22;20026;-46
2024/01/07 13:34:05;;;;;;;10.82;1.20;;;;;;;;;;6224079;22;20414;-46
2024/01/07 13:36:33;;;;;;;4.53;1.10;;;;;;;;;;6279624;22;20023;-46
2024/01/07 13:39:02;;;;;;;6.22;1.10;;;;;;;;;;6278279;22;20049;-45
2024/01/07 13:41:32;;;;;;;5.88;0.80;;;;;;;;;;6285329;22;20106;-46
2024/01/07 13:44:00;;;;;;;5.13;0.80;;;;;;;;;;6281324;22;20098;-46
2024/01/07 13:46:29;;;;;;;6.15;1.00;;;;;;;;;;6282909;22;20015;-46
2024/01/07 13:48:58;;;;;;;5.50;0.87;;;;;;;;;;6286890;22;20015;-48
2024/01/07 13:51:26;;;;;;;6.13;0.80;;;;;;;;;;6280106;22;20015;-45
2024/01/07 13:53:54;;;;;;;7.35;1.00;;;;;;;;;;6284379;22;20038;-46
2024/01/07 13:56:23;;;;;;;5.13;0.70;;;;;;;;;;6253616;22;20034;-45
2024/01/07 13:58:51;;;;;;;5.75;1.00;;;;;;;;;;6285920;22;20497;-45
2024/01/07 14:01:19;;;;;;;4.63;1.17;;;;;;;;;;6275659;22;20477;-46
2024/01/07 14:03:47;;;;;;;5.18;0.60;;;;;;;;;;6284830;22;20050;-46
2024/01/07 14:06:15;;;;;;;6.47;0.90;;;;;;;;;;6281260;22;20069;-46
2024/01/07 14:08:43;;;;;;;4.72;0.80;;;;;;;;;;6257045;22;20034;-48
2024/01/07 14:11:12;;;;;;;5.07;0.70;;;;;;;;;;6286573;22;20327;-46
2024/01/07 14:13:44;;;;;;;9.00;1.03;;;;;;;;;;6274928;22;20038;-50
2024/01/07 14:16:12;;;;;;;5.18;1.10;;;;;;;;;;6286374;22;20046;-49
2024/01/07 14:18:40;;;;;;;7.47;0.85;;;;;;;;;;6279865;22;20019;-46
2024/01/07 14:21:09;;;;;;;4.28;0.60;;;;;;;;;;6280254;22;20435;-49
2024/01/07 14:23:37;;;;;;;8.15;0.95;;;;;;;;;;6285399;22;20016;-46
2024/01/07 14:26:04;;;;;;;6.00;0.90;;;;;;;;;;6280308;22;20047;-47
2024/01/07 14:28:32;;;;;;;4.60;0.70;;;;;;;;;;6277355;22;20030;-46
2024/01/07 14:31:01;;;;;;;8.75;0.73;;;;;;;;;;6280240;22;20019;-46
2024/01/07 14:33:31;;;;;;;5.40;1.00;;;;;;;;;;6261911;22;20103;-47
2024/01/07 14:35:59;;;;;;;5.07;1.15;;;;;;;;;;6254160;22;20015;-48
2024/01/07 14:38:27;;;;;;;7.23;1.00;;;;;;;;;;6281245;22;20019;-46
2024/01/07 14:40:56;;;;;;;6.78;0.90;;;;;;;;;;6278018;22;20023;-50